Time;durP1;ratioP1;P1;durP2;ratioP2;P2;SDS_P1;SDS_P2;PMS_P1;PMS_P2;Temp;Humidity;BMP_temperature;BMP_pressure;BME280_temperature;BME280_humidity;BME280_pressure;Samples;Min_cycle;Max_cycle;Signal;HPM_P1;HPM_P2
2023/08/08 00:01:04;;;;;;;2.20;2.00;;;19.90;69.70;21.20;100711.00;;;;6178365;23;20521;-56
2023/08/08 00:03:30;;;;;;;3.60;2.33;;;19.90;70.10;21.20;100705.00;;;;6179772;23;20154;-56
2023/08/08 00:05:56;;;;;;;3.67;2.30;;;19.90;69.80;21.20;100714.00;;;;6179805;23;20158;-57
2023/08/08 00:08:21;;;;;;;2.07;1.97;;;19.90;70.20;21.20;100706.00;;;;6179874;23;20177;-57
2023/08/08 00:10:47;;;;;;;2.30;2.10;;;19.90;70.20;21.10;100701.00;;;;6179028;23;20190;-56
2023/08/08 00:13:13;;;;;;;2.60;2.40;;;19.90;69.70;21.10;100702.00;;;;6179125;23;20211;-56
2023/08/08 00:15:38;;;;;;;2.13;1.90;;;19.80;69.70;21.10;100705.00;;;;6179656;23;20146;-56
2023/08/08 00:18:04;;;;;;;2.40;2.07;;;19.90;69.80;21.10;100702.00;;;;6178958;23;20538;-56
2023/08/08 00:20:30;;;;;;;4.37;2.40;;;19.80;70.30;21.10;100695.00;;;;6179875;23;20650;-55
2023/08/08 00:22:56;;;;;;;4.47;2.30;;;19.80;70.30;21.10;100687.00;;;;6180267;23;20158;-56
2023/08/08 00:25:22;;;;;;;2.77;2.10;;;19.80;69.60;21.00;100694.00;;;;6180582;23;20606;-55
2023/08/08 00:27:47;;;;;;;3.80;2.23;;;19.80;70.40;21.00;100692.00;;;;6179979;23;20161;-55
2023/08/08 00:30:13;;;;;;;3.60;2.13;;;19.80;70.20;21.00;100680.00;;;;6179199;23;20182;-56
2023/08/08 00:32:39;;;;;;;2.30;2.10;;;19.70;69.00;21.00;100696.00;;;;6177897;23;20143;-56
2023/08/08 00:35:05;;;;;;;3.20;2.10;;;19.70;69.60;21.00;100695.00;;;;6179646;23;20143;-55
2023/08/08 00:37:31;;;;;;;3.00;2.13;;;19.60;69.30;21.00;100692.00;;;;6179814;23;20147;-55
2023/08/08 00:39:56;;;;;;;2.50;2.10;;;19.60;69.40;20.90;100693.00;;;;6179176;23;20173;-57
2023/08/08 00:42:22;;;;;;;2.43;2.23;;;19.60;69.60;21.00;100693.00;;;;6179515;23;20147;-54
2023/08/08 00:44:48;;;;;;;2.40;2.07;;;19.50;69.50;21.00;100703.00;;;;6178640;23;20487;-55
2023/08/08 00:47:14;;;;;;;3.07;2.30;;;19.50;69.80;21.00;100691.00;;;;6177327;23;20258;-55
2023/08/08 00:49:40;;;;;;;2.80;2.20;;;19.50;69.60;21.00;100693.00;;;;6177221;23;20683;-55
2023/08/08 00:52:06;;;;;;;2.83;2.10;;;19.60;69.40;20.90;100694.00;;;;6178129;23;20199;-55
2023/08/08 00:54:32;;;;;;;2.63;2.17;;;19.60;69.70;20.90;100686.00;;;;6181396;23;20151;-55
2023/08/08 00:56:58;;;;;;;4.37;2.20;;;19.40;69.80;20.90;100685.00;;;;6181535;23;20779;-55
2023/08/08 00:59:23;;;;;;;3.23;2.23;;;19.60;69.80;20.80;100685.00;;;;6155148;23;20304;-55
2023/08/08 01:01:49;;;;;;;2.40;2.20;;;19.40;69.40;20.80;100683.00;;;;6179973;23;20173;-55
2023/08/08 01:04:16;;;;;;;3.57;2.43;;;19.40;70.10;20.80;100696.00;;;;6180171;23;20167;-55
2023/08/08 01:06:55;;;;;;;2.70;2.50;;;19.50;69.70;20.80;100695.00;;;;6179759;23;20147;-56
2023/08/08 01:10:30;;;;;;;2.90;2.20;;;19.50;69.40;20.80;100688.00;;;;6176555;22;20178;-56
2023/08/08 01:12:59;;;;;;;2.20;2.00;;;19.40;70.10;20.70;100693.00;;;;6239050;23;20216;-56
2023/08/08 01:15:24;;;;;;;2.30;2.10;;;19.50;69.50;20.70;100698.00;;;;6190279;23;20716;-56
2023/08/08 01:17:50;;;;;;;2.60;2.40;;;19.50;70.10;20.70;100696.00;;;;6213688;23;20240;-57
2023/08/08 01:20:16;;;;;;;2.00;1.90;;;19.50;70.10;20.60;100688.00;;;;6227941;23;20166;-56
2023/08/08 01:23:11;;;;;;;2.60;2.40;;;19.60;70.10;20.60;100698.00;;;;6210021;23;20153;-56
2023/08/08 01:25:38;;;;;;;2.30;2.10;;;19.60;70.00;20.60;100682.00;;;;6164241;23;20157;-56
2023/08/08 01:28:05;;;;;;;2.90;2.30;;;19.60;69.70;20.60;100684.00;;;;6209315;23;20142;-56
2023/08/08 01:30:30;;;;;;;2.47;2.23;;;19.50;68.60;20.60;100682.00;;;;6211071;23;20192;-55
2023/08/08 01:32:56;;;;;;;2.73;2.20;;;19.50;69.90;20.60;100678.00;;;;6184615;23;20150;-57
2023/08/08 01:35:22;;;;;;;2.40;2.20;;;19.50;69.90;20.60;100683.00;;;;6212926;23;20602;-57
2023/08/08 01:37:54;;;;;;;2.50;2.30;;;19.50;68.90;20.60;100679.00;;;;6217999;23;20600;-57
2023/08/08 01:40:20;;;;;;;2.50;2.30;;;19.50;69.60;20.60;100654.00;;;;6213625;23;20221;-56
2023/08/08 01:42:47;;;;;;;2.60;2.40;;;19.40;68.80;20.50;100667.00;;;;6209674;23;20158;-56
2023/08/08 01:45:15;;;;;;;2.50;2.23;;;19.40;69.20;20.60;100673.00;;;;6209878;23;20610;-56
2023/08/08 01:47:41;;;;;;;2.90;2.53;;;19.40;69.10;20.60;100671.00;;;;6211379;23;20645;-56
2023/08/08 01:50:08;;;;;;;3.53;2.40;;;19.40;68.70;20.60;100663.00;;;;6211270;23;20607;-57
2023/08/08 01:52:34;;;;;;;2.70;2.40;;;19.30;68.70;20.50;100660.00;;;;6214988;23;20184;-59
2023/08/08 01:55:01;;;;;;;3.33;2.67;;;19.30;69.20;20.50;100673.00;;;;6184240;23;20177;-57
2023/08/08 01:57:26;;;;;;;4.17;2.40;;;19.30;68.90;20.50;100668.00;;;;6210956;23;20155;-55
2023/08/08 01:59:52;;;;;;;2.60;2.30;;;19.30;69.50;20.50;100676.00;;;;6210460;23;20181;-56
2023/08/08 02:02:18;;;;;;;4.13;2.50;;;19.20;68.90;20.30;100678.00;;;;6210713;23;20242;-56
2023/08/08 02:04:44;;;;;;;2.67;2.40;;;19.20;68.80;20.50;100674.00;;;;6211109;23;20606;-56
2023/08/08 02:07:09;;;;;;;3.37;2.50;;;19.30;68.60;20.40;100663.00;;;;6210936;23;20231;-56
2023/08/08 02:09:35;;;;;;;3.83;2.33;;;19.20;69.30;20.40;100666.00;;;;6210175;23;20182;-55
2023/08/08 02:12:01;;;;;;;2.50;2.30;;;19.10;69.00;20.40;100667.00;;;;6210470;23;20161;-55
2023/08/08 02:14:26;;;;;;;3.30;2.60;;;19.10;69.30;20.40;100656.00;;;;6210850;23;20134;-55
2023/08/08 02:16:52;;;;;;;2.70;2.50;;;19.10;69.60;20.40;100658.00;;;;6210821;23;20147;-56
2023/08/08 02:19:18;;;;;;;2.90;2.57;;;19.10;69.20;20.40;100653.00;;;;6210449;23;20198;-55
2023/08/08 02:21:43;;;;;;;4.27;2.47;;;19.20;69.20;20.40;100646.00;;;;6210344;23;20151;-55
2023/08/08 02:24:09;;;;;;;2.63;2.43;;;19.00;69.50;20.30;100653.00;;;;6210864;23;20725;-56
2023/08/08 02:26:35;;;;;;;3.03;2.40;;;19.00;69.10;20.30;100640.00;;;;6210290;23;20315;-56
2023/08/08 02:29:01;;;;;;;3.07;2.50;;;19.00;69.40;20.30;100640.00;;;;6210300;23;20155;-56
2023/08/08 02:31:26;;;;;;;2.83;2.43;;;19.00;69.30;20.30;100643.00;;;;6210408;23;20542;-56
2023/08/08 02:33:52;;;;;;;2.60;2.40;;;18.90;70.10;20.20;100640.00;;;;6183870;23;20208;-57
2023/08/08 02:36:18;;;;;;;2.93;2.53;;;18.90;69.60;20.20;100647.00;;;;6210297;23;20161;-55
2023/08/08 02:38:44;;;;;;;2.60;2.40;;;18.80;69.40;20.20;100633.00;;;;6210265;23;20827;-55
2023/08/08 02:41:10;;;;;;;2.93;2.40;;;18.90;69.90;20.20;100638.00;;;;6183160;23;20651;-55
2023/08/08 02:43:35;;;;;;;3.70;2.30;;;18.80;69.50;20.10;100640.00;;;;6210860;23;20150;-55
2023/08/08 02:46:01;;;;;;;2.60;2.40;;;18.80;69.60;20.10;100632.00;;;;6210572;23;20216;-55
2023/08/08 02:48:29;;;;;;;3.27;2.47;;;18.90;70.00;20.10;100642.00;;;;6210629;23;20436;-56
2023/08/08 02:50:55;;;;;;;2.93;2.47;;;18.90;69.20;20.10;100633.00;;;;6208176;23;20197;-55
2023/08/08 02:53:20;;;;;;;4.03;2.80;;;18.80;69.00;20.10;100625.00;;;;6210170;23;20146;-56
2023/08/08 02:55:47;;;;;;;3.23;2.67;;;18.80;69.60;20.00;100623.00;;;;6183371;23;20155;-55
2023/08/08 02:58:12;;;;;;;3.50;2.53;;;18.70;69.90;20.00;100636.00;;;;6210118;23;20151;-56
2023/08/08 03:00:38;;;;;;;3.60;2.40;;;18.60;69.50;20.00;100604.00;;;;6210054;23;20170;-55
2023/08/08 03:03:04;;;;;;;3.93;2.40;;;18.40;69.90;19.90;100626.00;;;;6212128;23;20157;-55
2023/08/08 03:05:30;;;;;;;4.30;2.57;;;18.40;70.60;19.90;100623.00;;;;6211868;23;20147;-56
2023/08/08 03:07:55;;;;;;;3.83;2.53;;;18.40;70.90;19.80;100613.00;;;;6211829;23;20147;-56
2023/08/08 03:10:21;;;;;;;3.50;2.53;;;18.40;70.40;19.80;100619.00;;;;6209405;23;20189;-56
2023/08/08 03:12:47;;;;;;;4.70;2.67;;;18.50;70.30;19.80;100618.00;;;;6184979;23;20170;-55
2023/08/08 03:15:13;;;;;;;3.43;2.70;;;18.60;69.90;19.80;100616.00;;;;6211893;23;20530;-55
2023/08/08 03:17:39;;;;;;;4.23;2.50;;;18.30;70.50;19.70;100607.00;;;;6211912;23;20576;-54
2023/08/08 03:20:06;;;;;;;3.37;2.37;;;18.30;70.20;19.70;100615.00;;;;6211266;23;20665;-55
2023/08/08 03:22:32;;;;;;;2.77;2.47;;;18.50;71.00;19.70;100619.00;;;;6211618;23;20147;-55
2023/08/08 03:24:58;;;;;;;3.20;2.70;;;18.50;70.40;19.70;100613.00;;;;6211227;23;20150;-55
2023/08/08 03:27:24;;;;;;;5.33;2.40;;;18.50;70.00;19.70;100611.00;;;;6211219;23;20146;-54
2023/08/08 03:29:51;;;;;;;3.33;2.30;;;18.50;70.40;19.70;100610.00;;;;6210752;23;20181;-54
2023/08/08 03:32:16;;;;;;;4.27;2.70;;;18.40;70.60;19.80;100619.00;;;;6209167;23;20143;-55
2023/08/08 03:34:42;;;;;;;3.07;2.30;;;18.60;70.50;19.80;100620.00;;;;6214623;23;20148;-54
2023/08/08 03:37:08;;;;;;;4.27;2.60;;;18.60;70.50;19.80;100616.00;;;;6210108;23;20149;-55
2023/08/08 03:39:33;;;;;;;3.20;2.60;;;18.60;70.10;19.80;100614.00;;;;6211026;23;20170;-54
2023/08/08 03:41:59;;;;;;;3.50;2.80;;;18.60;70.50;19.80;100612.00;;;;6210338;23;20714;-60
2023/08/08 03:44:25;;;;;;;3.23;2.40;;;18.60;70.30;19.80;100608.00;;;;6211564;23;20642;-55
2023/08/08 03:46:51;;;;;;;3.70;2.60;;;18.60;70.40;19.70;100625.00;;;;6183903;23;20162;-55
2023/08/08 03:49:16;;;;;;;2.93;2.30;;;18.60;69.80;19.80;100618.00;;;;6219553;23;20174;-55
2023/08/08 03:51:42;;;;;;;4.17;2.70;;;18.50;69.80;19.70;100619.00;;;;6211464;23;20143;-54
2023/08/08 03:54:08;;;;;;;3.93;2.43;;;18.40;69.80;19.70;100614.00;;;;6211189;23;20150;-55
2023/08/08 03:56:34;;;;;;;4.07;2.40;;;18.30;70.20;19.60;100610.00;;;;6211080;23;20150;-55
2023/08/08 03:58:59;;;;;;;5.20;2.50;;;18.50;70.00;19.60;100616.00;;;;6211309;23;20153;-55
2023/08/08 04:01:25;;;;;;;4.53;2.70;;;18.30;70.50;19.60;100607.00;;;;6210217;23;20253;-55
2023/08/08 04:03:51;;;;;;;3.33;2.40;;;18.20;70.70;19.60;100620.00;;;;6209673;23;20539;-55
2023/08/08 04:06:17;;;;;;;9.90;2.70;;;18.30;70.60;19.50;100613.00;;;;6210689;23;20153;-55
2023/08/08 04:08:42;;;;;;;7.37;2.80;;;18.30;70.20;19.50;100622.00;;;;6210734;23;20146;-55
2023/08/08 04:11:08;;;;;;;2.67;2.47;;;18.20;70.20;19.50;100627.00;;;;6208046;23;20662;-55
2023/08/08 04:13:34;;;;;;;3.93;2.70;;;18.10;70.90;19.50;100631.00;;;;6210633;23;20166;-54
2023/08/08 04:16:01;;;;;;;4.40;2.80;;;17.90;70.90;19.30;100634.00;;;;6210284;23;20142;-54
2023/08/08 04:18:26;;;;;;;4.80;2.73;;;17.60;73.00;19.20;100623.00;;;;6184397;23;20157;-54
2023/08/08 04:20:52;;;;;;;5.20;2.60;;;17.50;72.70;19.20;100633.00;;;;6210242;23;20252;-55
2023/08/08 04:23:18;;;;;;;4.93;2.70;;;17.50;73.80;19.10;100617.00;;;;6211035;23;20200;-54
2023/08/08 04:25:44;;;;;;;3.60;2.70;;;17.40;73.40;19.10;100614.00;;;;6210464;23;20216;-56
2023/08/08 04:28:10;;;;;;;4.60;2.80;;;17.40;73.80;19.00;100619.00;;;;6208933;23;20173;-55
2023/08/08 04:30:36;;;;;;;5.20;2.80;;;17.30;73.60;19.00;100612.00;;;;6210030;23;20209;-55
2023/08/08 04:33:01;;;;;;;6.67;2.90;;;17.40;74.20;18.90;100614.00;;;;6210672;23;20330;-54
2023/08/08 04:35:27;;;;;;;8.67;3.00;;;17.50;74.30;18.90;100615.00;;;;6210473;23;20775;-54
2023/08/08 04:37:53;;;;;;;5.80;3.00;;;17.40;74.00;18.90;100612.00;;;;6210731;23;20169;-54
2023/08/08 04:40:19;;;;;;;5.57;3.07;;;17.30;74.40;18.80;100605.00;;;;6209892;23;20232;-55
2023/08/08 04:42:44;;;;;;;5.43;2.90;;;17.10;75.10;18.80;100608.00;;;;6210497;23;20198;-54
2023/08/08 04:45:10;;;;;;;6.73;3.20;;;17.10;75.70;18.70;100611.00;;;;6210130;23;20151;-54
2023/08/08 04:47:36;;;;;;;5.40;3.00;;;17.20;75.20;18.70;100611.00;;;;6210198;23;20169;-54
2023/08/08 04:50:02;;;;;;;6.53;3.10;;;17.20;75.30;18.70;100612.00;;;;6209845;23;20184;-54
2023/08/08 04:52:27;;;;;;;5.53;2.93;;;17.00;76.00;18.60;100613.00;;;;6210795;23;20143;-54
2023/08/08 04:54:53;;;;;;;5.23;3.40;;;17.00;76.40;18.60;100617.00;;;;6210706;23;20150;-54
2023/08/08 04:57:19;;;;;;;6.43;3.37;;;16.90;76.60;18.60;100615.00;;;;6210937;23;20609;-54
2023/08/08 04:59:44;;;;;;;6.93;3.00;;;17.10;76.40;18.60;100602.00;;;;6184032;23;20179;-54
2023/08/08 05:02:10;;;;;;;6.03;2.90;;;17.10;76.50;18.60;100604.00;;;;6210874;23;20204;-54
2023/08/08 05:04:36;;;;;;;4.80;3.07;;;17.40;75.30;18.60;100606.00;;;;6210483;23;20545;-55
2023/08/08 05:07:02;;;;;;;3.97;2.70;;;17.60;75.00;18.70;100598.00;;;;6210271;23;20164;-55
2023/08/08 05:09:28;;;;;;;5.43;3.00;;;17.70;74.40;18.70;100597.00;;;;6209944;23;20729;-54
2023/08/08 05:11:53;;;;;;;5.23;2.90;;;17.60;74.50;18.80;100601.00;;;;6209961;23;20216;-54
2023/08/08 05:14:19;;;;;;;4.93;2.83;;;17.80;74.30;18.80;100590.00;;;;6210743;23;20142;-55
2023/08/08 05:16:46;;;;;;;5.23;2.90;;;17.80;74.10;18.80;100589.00;;;;6209957;23;20507;-54
2023/08/08 05:19:12;;;;;;;5.83;3.23;;;17.80;74.10;18.90;100596.00;;;;6210287;23;20151;-54
2023/08/08 05:21:37;;;;;;;5.10;2.83;;;17.90;74.10;18.90;100591.00;;;;6209973;23;20189;-55
2023/08/08 05:24:03;;;;;;;7.63;2.87;;;17.90;73.80;18.90;100586.00;;;;6210361;23;20143;-55
2023/08/08 05:26:29;;;;;;;7.63;3.30;;;18.00;73.60;19.00;100592.00;;;;6210050;23;20543;-55
2023/08/08 05:28:55;;;;;;;4.27;2.80;;;18.00;73.60;19.00;100591.00;;;;6212255;23;20142;-55
2023/08/08 05:31:20;;;;;;;7.40;2.97;;;17.90;73.60;19.00;100596.00;;;;6214991;23;20182;-55
2023/08/08 05:33:48;;;;;;;4.87;2.93;;;18.00;73.90;18.80;100594.00;;;;6210543;23;20143;-54
2023/08/08 05:36:14;;;;;;;3.87;2.83;;;17.80;74.10;19.00;100589.00;;;;6209623;23;20237;-55
2023/08/08 05:38:40;;;;;;;5.80;2.77;;;17.90;74.00;19.00;100588.00;;;;6210786;23;20186;-55
2023/08/08 05:41:06;;;;;;;5.53;2.90;;;17.90;73.90;19.00;100597.00;;;;6212158;23;20649;-57
2023/08/08 05:43:32;;;;;;;6.57;3.07;;;17.90;74.00;19.00;100582.00;;;;6213698;23;20150;-57
2023/08/08 05:45:58;;;;;;;5.70;2.90;;;17.80;74.20;19.00;100589.00;;;;6213666;23;20150;-57
2023/08/08 05:48:23;;;;;;;5.17;2.70;;;18.00;74.30;19.00;100590.00;;;;6212171;23;20490;-55
2023/08/08 05:50:49;;;;;;;5.00;3.00;;;18.00;74.10;19.00;100580.00;;;;6212061;23;20178;-55
2023/08/08 05:53:15;;;;;;;3.83;2.80;;;18.00;74.30;19.00;100597.00;;;;6212545;23;20149;-55
2023/08/08 05:55:42;;;;;;;7.77;3.30;;;18.00;73.90;19.00;100592.00;;;;6211652;23;20157;-54
2023/08/08 05:58:08;;;;;;;10.60;3.53;;;18.10;73.70;19.00;100536.00;;;;6212667;23;20269;-55
2023/08/08 06:00:34;;;;;;;7.13;3.37;;;18.00;73.90;19.00;100605.00;;;;6211930;23;20255;-54
2023/08/08 06:03:00;;;;;;;8.17;3.10;;;18.00;74.10;19.00;100596.00;;;;6211403;23;20161;-55
2023/08/08 06:05:26;;;;;;;8.63;3.03;;;18.00;74.40;19.00;100598.00;;;;6210646;23;20269;-55
2023/08/08 06:07:52;;;;;;;4.40;3.37;;;18.00;74.20;19.10;100606.00;;;;6212466;23;20162;-56
2023/08/08 06:10:18;;;;;;;7.60;3.53;;;18.00;74.30;19.10;100609.00;;;;6211588;23;20248;-55
2023/08/08 06:12:43;;;;;;;7.30;3.57;;;18.00;74.30;19.00;100610.00;;;;6211903;23;20481;-56
2023/08/08 06:15:09;;;;;;;5.60;2.83;;;18.00;74.30;19.10;100596.00;;;;6211773;23;20143;-56
2023/08/08 06:17:35;;;;;;;7.20;3.07;;;18.00;74.00;19.00;100590.00;;;;6212152;23;20205;-56
2023/08/08 06:20:01;;;;;;;5.40;2.97;;;18.00;74.60;19.00;100612.00;;;;6210130;23;20661;-56
2023/08/08 06:22:26;;;;;;;10.17;3.50;;;18.00;74.00;19.00;100623.00;;;;6212282;23;20606;-55
2023/08/08 06:24:52;;;;;;;6.23;3.30;;;18.00;74.50;19.00;100612.00;;;;6211795;23;20146;-55
2023/08/08 06:27:18;;;;;;;8.00;3.40;;;17.90;75.00;19.00;100612.00;;;;6211717;23;20154;-56
2023/08/08 06:29:44;;;;;;;7.13;3.00;;;18.00;74.60;19.00;100618.00;;;;6211507;23;20182;-55
2023/08/08 06:32:09;;;;;;;5.87;3.50;;;18.00;74.30;19.00;100613.00;;;;6211441;23;20610;-55
2023/08/08 06:34:35;;;;;;;4.97;3.23;;;17.80;75.20;19.00;100630.00;;;;6212130;23;20146;-56
2023/08/08 06:37:01;;;;;;;4.93;3.00;;;17.80;75.10;19.00;100610.00;;;;6211895;23;20490;-55
2023/08/08 06:39:27;;;;;;;4.77;2.90;;;17.90;74.40;18.90;100608.00;;;;6211776;23;20487;-55
2023/08/08 06:41:52;;;;;;;7.50;3.50;;;18.00;74.70;18.90;100626.00;;;;6212536;23;20174;-56
2023/08/08 06:44:18;;;;;;;5.03;3.00;;;17.90;75.00;19.00;100628.00;;;;6212148;23;20154;-55
2023/08/08 06:46:44;;;;;;;7.07;3.30;;;18.00;74.70;19.00;100627.00;;;;6185083;23;20614;-56
2023/08/08 06:49:10;;;;;;;6.17;3.30;;;18.10;74.70;19.00;100626.00;;;;6211625;23;20150;-55
2023/08/08 06:51:36;;;;;;;6.90;3.13;;;18.10;74.70;19.00;100621.00;;;;6211062;23;20629;-56
2023/08/08 06:54:01;;;;;;;6.67;2.90;;;18.10;74.40;19.00;100623.00;;;;6211564;23;20147;-56
2023/08/08 06:56:27;;;;;;;5.70;3.50;;;18.10;74.70;19.10;100601.00;;;;6211292;23;20142;-56
2023/08/08 06:58:53;;;;;;;5.20;3.10;;;18.10;74.60;19.10;100615.00;;;;6185190;23;20157;-55
2023/08/08 07:01:19;;;;;;;6.97;3.27;;;18.10;74.20;19.00;100612.00;;;;6210690;23;20173;-55
2023/08/08 07:03:46;;;;;;;4.77;2.80;;;18.20;74.80;19.00;100609.00;;;;6210440;23;20475;-53
2023/08/08 07:06:12;;;;;;;4.33;2.90;;;18.20;74.30;19.00;100602.00;;;;6210016;23;20185;-55
2023/08/08 07:08:39;;;;;;;4.77;2.73;;;18.10;74.40;19.00;100596.00;;;;6211727;23;20147;-54
2023/08/08 07:11:05;;;;;;;3.33;2.53;;;18.20;74.50;19.00;100605.00;;;;6210749;23;20183;-54
2023/08/08 07:13:31;;;;;;;4.07;2.87;;;18.20;74.60;19.10;100607.00;;;;6209835;23;20608;-53
2023/08/08 07:15:57;;;;;;;4.60;2.67;;;18.20;74.30;19.10;100604.00;;;;6209612;23;20151;-54
2023/08/08 07:18:23;;;;;;;5.07;2.90;;;18.20;74.30;19.10;100600.00;;;;6210439;23;20499;-54
2023/08/08 07:20:49;;;;;;;3.57;2.40;;;18.30;74.40;19.10;100603.00;;;;6211002;23;20501;-53
2023/08/08 07:23:16;;;;;;;5.00;2.90;;;18.30;74.30;19.20;100601.00;;;;6212029;23;20538;-53
2023/08/08 07:25:42;;;;;;;5.27;2.73;;;18.30;74.30;19.20;100608.00;;;;6212100;23;20161;-54
2023/08/08 07:28:08;;;;;;;6.67;2.70;;;18.30;74.30;19.20;100609.00;;;;6214628;23;20201;-54
2023/08/08 07:30:34;;;;;;;6.40;2.80;;;18.30;74.40;19.20;100604.00;;;;6183952;23;20769;-53
2023/08/08 07:33:00;;;;;;;6.27;2.80;;;18.30;74.30;19.20;100606.00;;;;6211486;23;20147;-53
2023/08/08 07:35:27;;;;;;;4.40;2.80;;;18.30;74.20;19.20;100620.00;;;;6184668;23;20150;-54
2023/08/08 07:37:52;;;;;;;4.33;2.73;;;18.30;74.20;19.20;100601.00;;;;6211388;23;20161;-54
2023/08/08 07:40:20;;;;;;;4.20;2.60;;;18.30;74.10;19.20;100597.00;;;;6214248;23;20170;-54
2023/08/08 07:42:49;;;;;;;3.57;2.60;;;18.30;74.10;19.20;100595.00;;;;6212002;23;20153;-53
2023/08/08 07:45:15;;;;;;;3.70;2.80;;;18.30;74.10;19.20;100592.00;;;;6211502;23;20146;-54
2023/08/08 07:47:40;;;;;;;3.57;2.60;;;18.30;74.00;19.20;100596.00;;;;6211368;23;20147;-54
2023/08/08 07:50:10;;;;;;;4.47;2.60;;;18.30;73.90;19.20;100593.00;;;;6211254;23;20188;-55
2023/08/08 07:52:36;;;;;;;3.20;2.47;;;18.30;73.90;19.30;100603.00;;;;6210994;23;20142;-53
2023/08/08 07:55:03;;;;;;;3.07;2.27;;;18.30;73.90;19.30;100592.00;;;;6210549;23;20173;-54
2023/08/08 07:57:30;;;;;;;3.07;2.47;;;18.30;73.90;19.30;100591.00;;;;6211020;23;20213;-53
2023/08/08 07:59:56;;;;;;;3.60;2.40;;;18.40;73.90;19.30;100590.00;;;;6211133;23;20557;-54
2023/08/08 08:02:22;;;;;;;3.73;2.40;;;18.30;73.80;19.30;100599.00;;;;6210872;23;20182;-53
2023/08/08 08:04:47;;;;;;;2.77;2.40;;;18.30;73.80;19.30;100591.00;;;;6210364;23;20154;-52
2023/08/08 08:07:13;;;;;;;3.17;2.50;;;18.30;73.80;19.30;100587.00;;;;6210672;23;20201;-53
2023/08/08 08:09:42;;;;;;;3.00;2.50;;;18.30;73.80;19.30;100588.00;;;;6210153;23;20182;-54
2023/08/08 08:12:08;;;;;;;3.53;2.60;;;18.30;73.80;19.30;100589.00;;;;6210494;23;20202;-55
2023/08/08 08:14:34;;;;;;;2.83;2.30;;;18.40;73.90;19.30;100593.00;;;;6183837;23;20530;-54
2023/08/08 08:16:59;;;;;;;2.40;2.20;;;18.30;73.80;19.30;100593.00;;;;6210686;23;20143;-54
2023/08/08 08:19:25;;;;;;;3.07;2.40;;;18.40;73.80;19.30;100593.00;;;;6210894;23;20147;-54
2023/08/08 08:21:51;;;;;;;2.43;2.23;;;18.40;73.80;19.30;100602.00;;;;6211096;23;20155;-54
2023/08/08 08:24:17;;;;;;;2.93;2.37;;;18.40;73.80;19.30;100591.00;;;;6210478;23;20146;-54
2023/08/08 08:26:42;;;;;;;2.70;2.27;;;18.40;73.80;19.30;100594.00;;;;6211003;23;20157;-54
2023/08/08 08:29:08;;;;;;;3.63;2.30;;;18.40;73.80;19.30;100593.00;;;;6210589;23;20154;-54
2023/08/08 08:31:34;;;;;;;2.90;2.40;;;18.40;73.80;19.30;100596.00;;;;6210469;23;20201;-54
2023/08/08 08:33:59;;;;;;;2.77;2.27;;;18.40;73.80;19.30;100598.00;;;;6210589;23;20147;-54
2023/08/08 08:36:26;;;;;;;2.40;2.20;;;18.40;73.70;19.30;100586.00;;;;6211346;23;20150;-55
2023/08/08 08:38:52;;;;;;;3.40;2.60;;;18.40;73.80;19.30;100589.00;;;;6211274;23;20158;-54
2023/08/08 08:41:19;;;;;;;4.03;2.27;;;18.40;73.70;19.30;100600.00;;;;6210409;23;20174;-54
2023/08/08 08:43:45;;;;;;;2.77;2.30;;;18.40;73.70;19.30;100594.00;;;;6209495;23;20204;-54
2023/08/08 08:46:11;;;;;;;3.50;2.50;;;18.40;73.70;19.30;100519.00;;;;6209390;23;20229;-54
2023/08/08 08:48:37;;;;;;;3.07;2.40;;;18.40;73.80;19.30;100595.00;;;;6210997;23;20150;-54
2023/08/08 08:51:02;;;;;;;2.57;2.20;;;18.40;73.80;19.30;100598.00;;;;6210502;23;20216;-60
2023/08/08 08:53:29;;;;;;;2.77;2.43;;;18.40;73.90;19.30;100596.00;;;;6208804;23;20147;-58
2023/08/08 08:55:56;;;;;;;4.57;2.53;;;18.40;73.90;19.40;100598.00;;;;6208603;23;20147;-60
2023/08/08 08:58:22;;;;;;;2.93;2.30;;;18.50;74.00;19.40;100599.00;;;;6208918;23;20153;-60
2023/08/08 09:00:48;;;;;;;3.07;2.30;;;18.40;73.90;19.40;100603.00;;;;6208934;23;20510;-59
2023/08/08 09:03:14;;;;;;;2.73;2.40;;;18.50;74.00;19.40;100594.00;;;;6209188;23;20177;-59
2023/08/08 09:05:41;;;;;;;2.73;2.30;;;18.40;73.90;19.40;100587.00;;;;6209141;23;20151;-60
2023/08/08 09:08:08;;;;;;;3.23;2.40;;;18.50;74.10;19.40;100600.00;;;;6209176;23;20158;-66
2023/08/08 09:10:35;;;;;;;3.60;2.23;;;18.40;74.20;19.40;100594.00;;;;6210266;23;20182;-60
2023/08/08 09:13:01;;;;;;;3.13;2.30;;;18.50;74.50;19.40;100598.00;;;;6209559;23;20233;-60
2023/08/08 09:15:33;;;;;;;5.23;2.40;;;18.40;74.30;19.40;100602.00;;;;6210782;23;20170;-60
2023/08/08 09:17:59;;;;;;;2.67;2.20;;;18.40;74.20;19.40;100606.00;;;;6213096;23;20185;-60
2023/08/08 09:20:27;;;;;;;2.93;2.30;;;18.40;74.20;19.40;100615.00;;;;6212664;23;20170;-60
2023/08/08 09:22:53;;;;;;;2.87;2.30;;;18.50;74.20;19.40;100601.00;;;;6215486;23;20526;-60
2023/08/08 09:25:19;;;;;;;2.27;2.07;;;18.50;74.10;19.40;100604.00;;;;6214422;23;20204;-60
2023/08/08 09:27:45;;;;;;;3.07;2.27;;;18.50;74.10;19.40;100610.00;;;;6213274;23;20157;-60
2023/08/08 09:30:11;;;;;;;2.97;2.40;;;18.50;74.20;19.40;100600.00;;;;6213054;23;20185;-60
2023/08/08 09:32:37;;;;;;;3.33;2.10;;;18.50;74.30;19.40;100594.00;;;;6213541;23;20216;-60
2023/08/08 09:35:05;;;;;;;2.40;2.20;;;18.50;74.20;19.40;100601.00;;;;6213784;23;20582;-60
2023/08/08 09:37:31;;;;;;;2.73;2.40;;;18.50;74.20;19.40;100604.00;;;;6217485;23;20619;-60
2023/08/08 09:40:00;;;;;;;2.30;2.10;;;18.40;74.10;19.40;100590.00;;;;6212694;23;20193;-60
2023/08/08 09:42:26;;;;;;;2.67;2.20;;;18.50;74.10;19.40;100597.00;;;;6207388;23;20157;-59
2023/08/08 09:44:52;;;;;;;4.77;2.43;;;18.50;74.40;19.40;100597.00;;;;6212261;23;20161;-61
2023/08/08 09:47:18;;;;;;;2.93;2.33;;;18.50;74.50;19.40;100608.00;;;;6210642;23;20157;-60
2023/08/08 09:49:43;;;;;;;2.80;2.23;;;18.50;74.50;19.40;100607.00;;;;6211325;23;20208;-59
2023/08/08 09:52:09;;;;;;;2.47;2.27;;;18.50;74.50;19.40;100611.00;;;;6210851;23;20157;-62
2023/08/08 09:54:35;;;;;;;2.13;2.03;;;18.50;74.50;19.40;100608.00;;;;6212288;23;20143;-60
2023/08/08 09:57:01;;;;;;;3.43;2.27;;;18.50;74.50;19.40;100611.00;;;;6210419;23;20491;-60
2023/08/08 09:59:27;;;;;;;2.60;2.20;;;18.50;74.50;19.40;100597.00;;;;6185580;23;20154;-60
2023/08/08 10:01:52;;;;;;;3.57;2.20;;;18.50;74.50;19.40;100610.00;;;;6210471;23;20154;-60
2023/08/08 10:04:18;;;;;;;2.47;2.10;;;18.50;74.80;19.40;100607.00;;;;6212203;23;20218;-61
2023/08/08 10:06:44;;;;;;;3.90;2.27;;;18.50;74.80;19.40;100600.00;;;;6185106;23;20154;-61
2023/08/08 10:09:09;;;;;;;2.43;2.20;;;18.50;74.80;19.40;100599.00;;;;6210845;23;20599;-60
2023/08/08 10:11:35;;;;;;;5.23;2.40;;;18.50;74.80;19.40;100595.00;;;;6210177;23;20190;-60
2023/08/08 10:14:02;;;;;;;5.50;2.60;;;18.60;74.90;19.40;100604.00;;;;6210358;23;20582;-61
2023/08/08 10:16:28;;;;;;;6.17;2.60;;;18.60;74.90;19.40;100605.00;;;;6211979;23;20169;-59
2023/08/08 10:18:59;;;;;;;13.30;3.20;;;18.60;74.90;19.40;100604.00;;;;6210660;23;20173;-59
2023/08/08 10:21:25;;;;;;;12.00;3.10;;;18.60;74.90;19.50;100611.00;;;;6211747;23;20166;-58
2023/08/08 10:24:05;;;;;;;9.33;3.40;;;18.70;75.10;19.50;100604.00;;;;6211947;23;20150;-60
2023/08/08 10:26:31;;;;;;;7.10;2.47;;;18.70;75.00;19.50;100595.00;;;;6211459;23;20135;-59
2023/08/08 10:28:58;;;;;;;5.53;2.73;;;18.70;75.40;19.30;100601.00;;;;6210723;23;20659;-60
2023/08/08 10:31:24;;;;;;;7.20;2.83;;;18.80;75.40;19.50;100588.00;;;;6199300;23;20186;-59
2023/08/08 10:33:49;;;;;;;8.53;2.70;;;18.80;75.40;19.60;100592.00;;;;6210830;23;20151;-60
2023/08/08 10:36:15;;;;;;;8.97;2.53;;;18.80;75.30;19.60;100598.00;;;;6210234;23;20241;-60
2023/08/08 10:38:50;;;;;;;5.47;2.87;;;18.80;75.20;19.60;100601.00;;;;6184723;23;20229;-60
2023/08/08 10:41:20;;;;;;;4.50;2.63;;;18.90;75.40;19.60;100590.00;;;;6211806;23;20196;-60
2023/08/08 10:43:50;;;;;;;4.57;2.50;;;18.90;75.30;19.60;100603.00;;;;6212083;23;20580;-59